sensor_id;sensor_type;location;lat;lon;timestamp;P1;durP1;ratioP1;P2;durP2;ratioP2
34471;SDS011;20710;49.976;19.836;2023-11-19T00:02:24;53.40;;;26.20;;
34471;SDS011;20710;49.976;19.836;2023-11-19T00:08:25;48.50;;;25.20;;
34471;SDS011;20710;49.976;19.836;2023-11-19T00:14:28;50.50;;;27.00;;
34471;SDS011;20710;49.976;19.836;2023-11-19T00:20:31;50.90;;;26.70;;
34471;SDS011;20710;49.976;19.836;2023-11-19T00:26:32;53.20;;;27.10;;
34471;SDS011;20710;49.976;19.836;2023-11-19T00:32:35;53.60;;;27.30;;
34471;SDS011;20710;49.976;19.836;2023-11-19T00:38:39;54.00;;;26.40;;
34471;SDS011;20710;49.976;19.836;2023-11-19T00:44:42;55.20;;;27.60;;
34471;SDS011;20710;49.976;19.836;2023-11-19T00:50:44;55.80;;;28.60;;
34471;SDS011;20710;49.976;19.836;2023-11-19T00:56:47;52.50;;;25.90;;
34471;SDS011;20710;49.976;19.836;2023-11-19T01:02:49;47.60;;;24.50;;
34471;SDS011;20710;49.976;19.836;2023-11-19T01:08:51;48.30;;;23.70;;
34471;SDS011;20710;49.976;19.836;2023-11-19T01:14:54;53.70;;;25.10;;
34471;SDS011;20710;49.976;19.836;2023-11-19T01:20:57;49.90;;;26.00;;
34471;SDS011;20710;49.976;19.836;2023-11-19T01:26:59;50.50;;;24.00;;
34471;SDS011;20710;49.976;19.836;2023-11-19T01:33:01;49.00;;;25.20;;
34471;SDS011;20710;49.976;19.836;2023-11-19T01:39:03;52.80;;;25.40;;
34471;SDS011;20710;49.976;19.836;2023-11-19T01:45:08;49.30;;;24.70;;
34471;SDS011;20710;49.976;19.836;2023-11-19T01:51:12;44.60;;;24.40;;
34471;SDS011;20710;49.976;19.836;2023-11-19T01:57:15;50.70;;;25.40;;
34471;SDS011;20710;49.976;19.836;2023-11-19T02:03:17;48.90;;;24.10;;
34471;SDS011;20710;49.976;19.836;2023-11-19T02:09:19;49.40;;;25.50;;
34471;SDS011;20710;49.976;19.836;2023-11-19T02:15:21;51.70;;;26.00;;
34471;SDS011;20710;49.976;19.836;2023-11-19T02:21:26;47.80;;;24.40;;
34471;SDS011;20710;49.976;19.836;2023-11-19T02:34:06;52.20;;;25.80;;
34471;SDS011;20710;49.976;19.836;2023-11-19T02:40:24;53.00;;;26.90;;
34471;SDS011;20710;49.976;19.836;2023-11-19T02:53:22;49.40;;;26.80;;
34471;SDS011;20710;49.976;19.836;2023-11-19T02:59:30;54.10;;;27.10;;
34471;SDS011;20710;49.976;19.836;2023-11-19T03:05:42;57.40;;;27.10;;
34471;SDS011;20710;49.976;19.836;2023-11-19T03:11:53;56.80;;;27.00;;
34471;SDS011;20710;49.976;19.836;2023-11-19T03:24:43;53.60;;;26.80;;
34471;SDS011;20710;49.976;19.836;2023-11-19T03:30:48;51.20;;;25.50;;
34471;SDS011;20710;49.976;19.836;2023-11-19T03:36:53;51.90;;;25.40;;
34471;SDS011;20710;49.976;19.836;2023-11-19T03:43:09;57.00;;;27.90;;
34471;SDS011;20710;49.976;19.836;2023-11-19T03:49:25;57.40;;;27.00;;
34471;SDS011;20710;49.976;19.836;2023-11-19T03:55:34;57.00;;;25.20;;
34471;SDS011;20710;49.976;19.836;2023-11-19T04:01:42;52.10;;;24.80;;
34471;SDS011;20710;49.976;19.836;2023-11-19T04:07:46;48.80;;;23.30;;
34471;SDS011;20710;49.976;19.836;2023-11-19T04:13:58;56.00;;;24.60;;
34471;SDS011;20710;49.976;19.836;2023-11-19T04:20:02;55.10;;;24.50;;
34471;SDS011;20710;49.976;19.836;2023-11-19T04:26:08;58.80;;;24.90;;
34471;SDS011;20710;49.976;19.836;2023-11-19T04:32:14;57.80;;;27.70;;
34471;SDS011;20710;49.976;19.836;2023-11-19T04:38:20;60.40;;;25.90;;
34471;SDS011;20710;49.976;19.836;2023-11-19T04:50:31;60.80;;;27.10;;
34471;SDS011;20710;49.976;19.836;2023-11-19T04:56:35;64.30;;;28.40;;
34471;SDS011;20710;49.976;19.836;2023-11-19T05:02:42;54.00;;;25.40;;
34471;SDS011;20710;49.976;19.836;2023-11-19T05:09:10;58.30;;;24.60;;
34471;SDS011;20710;49.976;19.836;2023-11-19T05:15:19;57.70;;;25.70;;
34471;SDS011;20710;49.976;19.836;2023-11-19T05:21:42;57.60;;;26.10;;
34471;SDS011;20710;49.976;19.836;2023-11-19T05:27:53;60.10;;;27.30;;
34471;SDS011;20710;49.976;19.836;2023-11-19T05:34:06;63.50;;;28.10;;
34471;SDS011;20710;49.976;19.836;2023-11-19T05:40:15;59.30;;;25.40;;
34471;SDS011;20710;49.976;19.836;2023-11-19T05:46:20;56.60;;;25.80;;
34471;SDS011;20710;49.976;19.836;2023-11-19T05:52:24;57.60;;;27.50;;
34471;SDS011;20710;49.976;19.836;2023-11-19T05:58:30;66.30;;;28.70;;
34471;SDS011;20710;49.976;19.836;2023-11-19T06:04:35;66.30;;;27.50;;
34471;SDS011;20710;49.976;19.836;2023-11-19T06:10:39;56.90;;;25.60;;
34471;SDS011;20710;49.976;19.836;2023-11-19T06:16:48;66.80;;;29.10;;
34471;SDS011;20710;49.976;19.836;2023-11-19T06:22:53;70.40;;;29.70;;
34471;SDS011;20710;49.976;19.836;2023-11-19T06:28:57;87.90;;;35.50;;
34471;SDS011;20710;49.976;19.836;2023-11-19T06:35:02;77.20;;;33.20;;
34471;SDS011;20710;49.976;19.836;2023-11-19T06:41:07;73.80;;;32.80;;
34471;SDS011;20710;49.976;19.836;2023-11-19T06:53:18;74.00;;;31.70;;
34471;SDS011;20710;49.976;19.836;2023-11-19T06:59:24;74.80;;;32.70;;
34471;SDS011;20710;49.976;19.836;2023-11-19T07:05:27;74.20;;;32.60;;
34471;SDS011;20710;49.976;19.836;2023-11-19T07:11:30;73.80;;;32.90;;
34471;SDS011;20710;49.976;19.836;2023-11-19T07:17:39;78.30;;;33.70;;
34471;SDS011;20710;49.976;19.836;2023-11-19T07:23:48;82.90;;;34.60;;
34471;SDS011;20710;49.976;19.836;2023-11-19T07:29:56;77.40;;;34.90;;
34471;SDS011;20710;49.976;19.836;2023-11-19T07:36:03;58.30;;;29.60;;
34471;SDS011;20710;49.976;19.836;2023-11-19T07:42:09;56.80;;;28.10;;
34471;SDS011;20710;49.976;19.836;2023-11-19T07:48:13;60.20;;;27.10;;
34471;SDS011;20710;49.976;19.836;2023-11-19T07:54:20;57.50;;;26.40;;
34471;SDS011;20710;49.976;19.836;2023-11-19T08:00:32;62.10;;;27.30;;
34471;SDS011;20710;49.976;19.836;2023-11-19T08:06:42;61.80;;;25.10;;
34471;SDS011;20710;49.976;19.836;2023-11-19T08:13:00;67.20;;;31.20;;
34471;SDS011;20710;49.976;19.836;2023-11-19T08:19:04;64.40;;;29.60;;
34471;SDS011;20710;49.976;19.836;2023-11-19T08:25:11;67.00;;;31.10;;
34471;SDS011;20710;49.976;19.836;2023-11-19T08:31:18;61.70;;;29.40;;
34471;SDS011;20710;49.976;19.836;2023-11-19T08:37:24;43.30;;;21.00;;
34471;SDS011;20710;49.976;19.836;2023-11-19T08:43:27;33.90;;;19.10;;
34471;SDS011;20710;49.976;19.836;2023-11-19T08:49:34;34.40;;;17.90;;
34471;SDS011;20710;49.976;19.836;2023-11-19T08:55:43;35.60;;;16.60;;
34471;SDS011;20710;49.976;19.836;2023-11-19T09:01:47;25.30;;;14.80;;
34471;SDS011;20710;49.976;19.836;2023-11-19T09:07:54;30.80;;;15.90;;
34471;SDS011;20710;49.976;19.836;2023-11-19T09:13:59;31.60;;;16.10;;
34471;SDS011;20710;49.976;19.836;2023-11-19T09:20:04;32.30;;;16.10;;
34471;SDS011;20710;49.976;19.836;2023-11-19T09:26:08;29.20;;;15.10;;
34471;SDS011;20710;49.976;19.836;2023-11-19T09:32:12;40.50;;;20.20;;
34471;SDS011;20710;49.976;19.836;2023-11-19T09:38:22;31.20;;;15.50;;
34471;SDS011;20710;49.976;19.836;2023-11-19T09:44:27;24.20;;;13.50;;
34471;SDS011;20710;49.976;19.836;2023-11-19T09:50:33;26.60;;;13.50;;
34471;SDS011;20710;49.976;19.836;2023-11-19T09:56:38;25.60;;;13.40;;
34471;SDS011;20710;49.976;19.836;2023-11-19T10:02:44;26.60;;;13.00;;
34471;SDS011;20710;49.976;19.836;2023-11-19T10:08:51;24.10;;;13.10;;
34471;SDS011;20710;49.976;19.836;2023-11-19T10:14:59;25.20;;;13.20;;
34471;SDS011;20710;49.976;19.836;2023-11-19T10:21:04;25.00;;;13.70;;
34471;SDS011;20710;49.976;19.836;2023-11-19T10:27:09;23.50;;;11.50;;
34471;SDS011;20710;49.976;19.836;2023-11-19T10:46:12;21.10;;;12.90;;
34471;SDS011;20710;49.976;19.836;2023-11-19T10:52:19;20.60;;;12.70;;
34471;SDS011;20710;49.976;19.836;2023-11-19T10:58:22;22.30;;;12.00;;
34471;SDS011;20710;49.976;19.836;2023-11-19T11:04:25;22.00;;;13.40;;
34471;SDS011;20710;49.976;19.836;2023-11-19T11:10:30;21.70;;;11.80;;
34471;SDS011;20710;49.976;19.836;2023-11-19T11:16:44;21.00;;;11.80;;
34471;SDS011;20710;49.976;19.836;2023-11-19T11:23:36;23.30;;;11.90;;
34471;SDS011;20710;49.976;19.836;2023-11-19T11:29:31;27.80;;;14.10;;
34471;SDS011;20710;49.976;19.836;2023-11-19T11:36:11;19.30;;;10.90;;
34471;SDS011;20710;49.976;19.836;2023-11-19T11:48:28;20.10;;;11.10;;
34471;SDS011;20710;49.976;19.836;2023-11-19T11:54:32;15.30;;;8.40;;
34471;SDS011;20710;49.976;19.836;2023-11-19T12:00:40;17.20;;;10.20;;
34471;SDS011;20710;49.976;19.836;2023-11-19T12:07:02;14.40;;;8.10;;
34471;SDS011;20710;49.976;19.836;2023-11-19T12:13:09;11.20;;;7.20;;
34471;SDS011;20710;49.976;19.836;2023-11-19T12:19:17;17.10;;;8.70;;
34471;SDS011;20710;49.976;19.836;2023-11-19T12:31:28;17.20;;;8.90;;
34471;SDS011;20710;49.976;19.836;2023-11-19T12:37:32;13.10;;;7.80;;
34471;SDS011;20710;49.976;19.836;2023-11-19T12:43:35;12.20;;;7.30;;
34471;SDS011;20710;49.976;19.836;2023-11-19T12:49:39;12.30;;;7.40;;
34471;SDS011;20710;49.976;19.836;2023-11-19T12:55:42;10.70;;;7.20;;
34471;SDS011;20710;49.976;19.836;2023-11-19T13:01:54;13.20;;;7.70;;
34471;SDS011;20710;49.976;19.836;2023-11-19T13:08:07;14.00;;;8.30;;
34471;SDS011;20710;49.976;19.836;2023-11-19T13:14:11;16.80;;;10.20;;
34471;SDS011;20710;49.976;19.836;2023-11-19T13:20:15;20.40;;;11.60;;
34471;SDS011;20710;49.976;19.836;2023-11-19T13:26:20;18.70;;;10.40;;
34471;SDS011;20710;49.976;19.836;2023-11-19T13:32:27;17.10;;;10.30;;
34471;SDS011;20710;49.976;19.836;2023-11-19T13:38:32;24.70;;;12.80;;
34471;SDS011;20710;49.976;19.836;2023-11-19T13:44:34;22.90;;;12.70;;
34471;SDS011;20710;49.976;19.836;2023-11-19T13:50:37;22.50;;;11.90;;
34471;SDS011;20710;49.976;19.836;2023-11-19T13:56:39;23.60;;;12.80;;
34471;SDS011;20710;49.976;19.836;2023-11-19T14:02:48;22.40;;;13.30;;
34471;SDS011;20710;49.976;19.836;2023-11-19T14:08:52;24.70;;;15.10;;
34471;SDS011;20710;49.976;19.836;2023-11-19T14:14:55;29.30;;;16.00;;
34471;SDS011;20710;49.976;19.836;2023-11-19T14:20:57;28.40;;;15.60;;
34471;SDS011;20710;49.976;19.836;2023-11-19T14:27:02;28.60;;;15.80;;
34471;SDS011;20710;49.976;19.836;2023-11-19T14:33:05;28.30;;;15.80;;
34471;SDS011;20710;49.976;19.836;2023-11-19T14:39:08;36.30;;;19.60;;
34471;SDS011;20710;49.976;19.836;2023-11-19T14:45:11;31.60;;;17.90;;
34471;SDS011;20710;49.976;19.836;2023-11-19T14:51:14;38.70;;;20.10;;
34471;SDS011;20710;49.976;19.836;2023-11-19T14:57:17;28.90;;;17.10;;
34471;SDS011;20710;49.976;19.836;2023-11-19T15:03:20;31.90;;;18.00;;
34471;SDS011;20710;49.976;19.836;2023-11-19T15:09:24;30.20;;;17.90;;
34471;SDS011;20710;49.976;19.836;2023-11-19T15:15:27;32.60;;;18.70;;
34471;SDS011;20710;49.976;19.836;2023-11-19T15:21:30;29.40;;;18.30;;
34471;SDS011;20710;49.976;19.836;2023-11-19T15:27:32;35.20;;;20.20;;
34471;SDS011;20710;49.976;19.836;2023-11-19T15:33:35;32.10;;;19.40;;
34471;SDS011;20710;49.976;19.836;2023-11-19T15:39:37;38.40;;;21.40;;
34471;SDS011;20710;49.976;19.836;2023-11-19T15:45:40;38.20;;;23.10;;
34471;SDS011;20710;49.976;19.836;2023-11-19T15:51:43;35.10;;;21.40;;
34471;SDS011;20710;49.976;19.836;2023-11-19T15:57:45;187.40;;;114.50;;
34471;SDS011;20710;49.976;19.836;2023-11-19T16:03:52;85.20;;;50.70;;
34471;SDS011;20710;49.976;19.836;2023-11-19T16:09:58;93.50;;;53.40;;
34471;SDS011;20710;49.976;19.836;2023-11-19T16:22:04;86.30;;;46.40;;
34471;SDS011;20710;49.976;19.836;2023-11-19T16:28:11;70.30;;;38.50;;
34471;SDS011;20710;49.976;19.836;2023-11-19T16:41:11;48.00;;;26.80;;
34471;SDS011;20710;49.976;19.836;2023-11-19T16:47:16;50.30;;;27.60;;
34471;SDS011;20710;49.976;19.836;2023-11-19T16:53:23;44.80;;;26.00;;
34471;SDS011;20710;49.976;19.836;2023-11-19T16:59:25;46.70;;;28.00;;
34471;SDS011;20710;49.976;19.836;2023-11-19T17:05:50;49.90;;;26.70;;
34471;SDS011;20710;49.976;19.836;2023-11-19T17:11:54;46.80;;;27.60;;
34471;SDS011;20710;49.976;19.836;2023-11-19T17:18:36;58.60;;;31.00;;
34471;SDS011;20710;49.976;19.836;2023-11-19T17:25:14;59.70;;;33.60;;
34471;SDS011;20710;49.976;19.836;2023-11-19T17:31:17;66.20;;;33.60;;
34471;SDS011;20710;49.976;19.836;2023-11-19T17:37:19;69.50;;;36.10;;
34471;SDS011;20710;49.976;19.836;2023-11-19T17:43:21;70.60;;;37.60;;
34471;SDS011;20710;49.976;19.836;2023-11-19T17:49:23;63.90;;;35.00;;
34471;SDS011;20710;49.976;19.836;2023-11-19T17:55:25;63.10;;;35.20;;
34471;SDS011;20710;49.976;19.836;2023-11-19T18:01:26;73.70;;;39.10;;
34471;SDS011;20710;49.976;19.836;2023-11-19T18:07:28;69.90;;;35.70;;
34471;SDS011;20710;49.976;19.836;2023-11-19T18:13:30;79.70;;;41.60;;
34471;SDS011;20710;49.976;19.836;2023-11-19T18:19:32;79.60;;;42.20;;
34471;SDS011;20710;49.976;19.836;2023-11-19T18:25:34;68.90;;;38.20;;
34471;SDS011;20710;49.976;19.836;2023-11-19T18:32:18;75.90;;;41.20;;
34471;SDS011;20710;49.976;19.836;2023-11-19T18:38:51;75.60;;;41.40;;
34471;SDS011;20710;49.976;19.836;2023-11-19T18:45:14;81.10;;;44.10;;
34471;SDS011;20710;49.976;19.836;2023-11-19T18:51:21;75.90;;;40.30;;
34471;SDS011;20710;49.976;19.836;2023-11-19T18:58:03;64.50;;;36.20;;
34471;SDS011;20710;49.976;19.836;2023-11-19T19:04:05;78.90;;;40.20;;
34471;SDS011;20710;49.976;19.836;2023-11-19T19:10:14;73.50;;;40.50;;
34471;SDS011;20710;49.976;19.836;2023-11-19T19:16:16;82.60;;;43.40;;
34471;SDS011;20710;49.976;19.836;2023-11-19T19:22:18;80.20;;;40.90;;
34471;SDS011;20710;49.976;19.836;2023-11-19T19:28:21;80.20;;;42.20;;
34471;SDS011;20710;49.976;19.836;2023-11-19T19:34:43;66.60;;;36.30;;
34471;SDS011;20710;49.976;19.836;2023-11-19T19:40:52;63.50;;;34.70;;
34471;SDS011;20710;49.976;19.836;2023-11-19T19:47:10;51.80;;;27.60;;
34471;SDS011;20710;49.976;19.836;2023-11-19T19:53:15;36.50;;;20.30;;
34471;SDS011;20710;49.976;19.836;2023-11-19T19:59:18;32.70;;;17.40;;
34471;SDS011;20710;49.976;19.836;2023-11-19T20:05:21;30.60;;;17.10;;
34471;SDS011;20710;49.976;19.836;2023-11-19T20:11:23;29.70;;;15.50;;
34471;SDS011;20710;49.976;19.836;2023-11-19T20:18:06;26.80;;;14.40;;
34471;SDS011;20710;49.976;19.836;2023-11-19T20:24:29;34.80;;;17.80;;
34471;SDS011;20710;49.976;19.836;2023-11-19T20:30:44;24.70;;;13.90;;
34471;SDS011;20710;49.976;19.836;2023-11-19T20:36:46;24.30;;;12.90;;
34471;SDS011;20710;49.976;19.836;2023-11-19T20:42:48;24.20;;;12.30;;
34471;SDS011;20710;49.976;19.836;2023-11-19T20:48:52;28.80;;;17.10;;
34471;SDS011;20710;49.976;19.836;2023-11-19T20:54:55;23.50;;;13.60;;
34471;SDS011;20710;49.976;19.836;2023-11-19T21:00:57;26.40;;;13.90;;
34471;SDS011;20710;49.976;19.836;2023-11-19T21:07:01;23.00;;;13.50;;
34471;SDS011;20710;49.976;19.836;2023-11-19T21:13:04;26.00;;;13.50;;
34471;SDS011;20710;49.976;19.836;2023-11-19T21:19:26;28.90;;;15.70;;
34471;SDS011;20710;49.976;19.836;2023-11-19T21:25:29;27.80;;;14.20;;
34471;SDS011;20710;49.976;19.836;2023-11-19T21:31:37;27.60;;;14.80;;
34471;SDS011;20710;49.976;19.836;2023-11-19T21:44:06;26.80;;;14.20;;
34471;SDS011;20710;49.976;19.836;2023-11-19T21:50:10;19.10;;;11.30;;
34471;SDS011;20710;49.976;19.836;2023-11-19T21:56:33;19.30;;;9.10;;
34471;SDS011;20710;49.976;19.836;2023-11-19T22:02:42;15.20;;;8.50;;
34471;SDS011;20710;49.976;19.836;2023-11-19T22:09:07;21.50;;;10.10;;
34471;SDS011;20710;49.976;19.836;2023-11-19T22:15:29;23.50;;;11.00;;
34471;SDS011;20710;49.976;19.836;2023-11-19T22:22:08;33.00;;;13.40;;
34471;SDS011;20710;49.976;19.836;2023-11-19T22:28:12;33.20;;;13.90;;
34471;SDS011;20710;49.976;19.836;2023-11-19T22:34:16;25.90;;;11.90;;
34471;SDS011;20710;49.976;19.836;2023-11-19T22:40:40;17.00;;;9.80;;
34471;SDS011;20710;49.976;19.836;2023-11-19T22:46:45;17.80;;;11.20;;
34471;SDS011;20710;49.976;19.836;2023-11-19T22:52:47;24.60;;;11.80;;
34471;SDS011;20710;49.976;19.836;2023-11-19T22:59:10;21.50;;;11.00;;
34471;SDS011;20710;49.976;19.836;2023-11-19T23:05:12;18.70;;;9.60;;
34471;SDS011;20710;49.976;19.836;2023-11-19T23:11:16;22.00;;;10.70;;
34471;SDS011;20710;49.976;19.836;2023-11-19T23:17:24;21.00;;;12.90;;
34471;SDS011;20710;49.976;19.836;2023-11-19T23:23:28;34.70;;;18.60;;
34471;SDS011;20710;49.976;19.836;2023-11-19T23:29:32;41.80;;;20.60;;
34471;SDS011;20710;49.976;19.836;2023-11-19T23:35:37;38.10;;;20.00;;
34471;SDS011;20710;49.976;19.836;2023-11-19T23:41:45;44.70;;;22.80;;
34471;SDS011;20710;49.976;19.836;2023-11-19T23:48:11;20.70;;;11.90;;
34471;SDS011;20710;49.976;19.836;2023-11-19T23:55:01;20.30;;;8.80;;
